Ladysmith, Canada
Current Conditions -  °F | °C
As of 6:00 PM on Friday 19 Dec 2014 (Local Time) from CYCD Reporting Station
Broken Clouds Broken Clouds  
Wind Chill: 42°   Ceiling: 10000
Heat Index: 45°   Visibility: 15mi
Dew Point: 43°   Wind: 5mph
Humidity: 93%   Direction: 120°ESE
Pressure: 29.86"   Gusts: NA
Location:  48.98°N, 123.82°W
Report Text: CYCD 200200Z 12004KT 15SM FEW015 SCT030 BKN100 BKN200 07/06 A2986 RMK CF1CU2AC2CI2 SLP113
Loading
Personal Weather Stations






























Interactive Weather Map New forecast layout! Learn more

10-Day Weather Forecast

Advertisements
Track Severe Weather on mobile